sensor_id;sensor_type;location;lat;lon;timestamp;P1;durP1;ratioP1;P2;durP2;ratioP2
58091;SDS011;43896;48.178;11.578;2024-03-17T00:01:50;4.82;;;2.55;;
58091;SDS011;43896;48.178;11.578;2024-03-17T00:04:15;5.50;;;3.00;;
58091;SDS011;43896;48.178;11.578;2024-03-17T00:06:41;6.63;;;2.47;;
58091;SDS011;43896;48.178;11.578;2024-03-17T00:09:06;6.18;;;2.60;;
58091;SDS011;43896;48.178;11.578;2024-03-17T00:11:34;4.82;;;2.83;;
58091;SDS011;43896;48.178;11.578;2024-03-17T00:14:00;6.07;;;2.30;;
58091;SDS011;43896;48.178;11.578;2024-03-17T00:16:26;4.78;;;2.33;;
58091;SDS011;43896;48.178;11.578;2024-03-17T00:18:52;6.40;;;2.83;;
58091;SDS011;43896;48.178;11.578;2024-03-17T00:21:18;5.05;;;2.40;;
58091;SDS011;43896;48.178;11.578;2024-03-17T00:23:44;4.43;;;2.38;;
58091;SDS011;43896;48.178;11.578;2024-03-17T00:26:12;4.50;;;2.70;;
58091;SDS011;43896;48.178;11.578;2024-03-17T00:28:37;5.25;;;2.75;;
58091;SDS011;43896;48.178;11.578;2024-03-17T00:31:04;5.57;;;2.70;;
58091;SDS011;43896;48.178;11.578;2024-03-17T00:33:30;4.47;;;2.28;;
58091;SDS011;43896;48.178;11.578;2024-03-17T00:35:55;4.55;;;2.38;;
58091;SDS011;43896;48.178;11.578;2024-03-17T00:38:21;6.10;;;2.50;;
58091;SDS011;43896;48.178;11.578;2024-03-17T00:40:46;4.80;;;2.22;;
58091;SDS011;43896;48.178;11.578;2024-03-17T00:43:12;4.47;;;2.63;;
58091;SDS011;43896;48.178;11.578;2024-03-17T00:45:37;4.70;;;2.60;;
58091;SDS011;43896;48.178;11.578;2024-03-17T00:48:03;5.55;;;2.63;;
58091;SDS011;43896;48.178;11.578;2024-03-17T00:50:31;5.38;;;2.90;;
58091;SDS011;43896;48.178;11.578;2024-03-17T00:52:56;5.85;;;2.78;;
58091;SDS011;43896;48.178;11.578;2024-03-17T00:55:22;6.75;;;2.92;;
58091;SDS011;43896;48.178;11.578;2024-03-17T00:57:47;5.75;;;3.03;;
58091;SDS011;43896;48.178;11.578;2024-03-17T01:00:13;5.65;;;2.90;;
58091;SDS011;43896;48.178;11.578;2024-03-17T01:02:40;5.78;;;3.10;;
58091;SDS011;43896;48.178;11.578;2024-03-17T01:05:06;5.07;;;2.60;;
58091;SDS011;43896;48.178;11.578;2024-03-17T01:07:32;5.95;;;2.70;;
58091;SDS011;43896;48.178;11.578;2024-03-17T01:09:58;4.78;;;2.70;;
58091;SDS011;43896;48.178;11.578;2024-03-17T01:12:25;6.45;;;2.75;;
58091;SDS011;43896;48.178;11.578;2024-03-17T01:14:51;5.80;;;2.78;;
58091;SDS011;43896;48.178;11.578;2024-03-17T01:17:16;5.88;;;3.22;;
58091;SDS011;43896;48.178;11.578;2024-03-17T01:19:44;5.68;;;2.92;;
58091;SDS011;43896;48.178;11.578;2024-03-17T01:22:09;4.85;;;2.53;;
58091;SDS011;43896;48.178;11.578;2024-03-17T01:24:35;6.15;;;2.75;;
58091;SDS011;43896;48.178;11.578;2024-03-17T01:27:00;5.15;;;2.80;;
58091;SDS011;43896;48.178;11.578;2024-03-17T01:29:26;5.10;;;2.67;;
58091;SDS011;43896;48.178;11.578;2024-03-17T01:31:52;5.50;;;3.00;;
58091;SDS011;43896;48.178;11.578;2024-03-17T01:34:20;4.65;;;2.60;;
58091;SDS011;43896;48.178;11.578;2024-03-17T01:36:46;6.57;;;2.60;;
58091;SDS011;43896;48.178;11.578;2024-03-17T01:39:12;5.30;;;2.95;;
58091;SDS011;43896;48.178;11.578;2024-03-17T01:41:38;5.43;;;2.45;;
58091;SDS011;43896;48.178;11.578;2024-03-17T01:44:04;5.65;;;2.85;;
58091;SDS011;43896;48.178;11.578;2024-03-17T01:46:29;5.10;;;2.80;;
58091;SDS011;43896;48.178;11.578;2024-03-17T01:48:55;5.60;;;2.97;;
58091;SDS011;43896;48.178;11.578;2024-03-17T01:51:20;5.53;;;3.13;;
58091;SDS011;43896;48.178;11.578;2024-03-17T01:53:47;5.25;;;2.75;;
58091;SDS011;43896;48.178;11.578;2024-03-17T01:56:13;5.80;;;3.40;;
58091;SDS011;43896;48.178;11.578;2024-03-17T01:58:41;4.95;;;2.90;;
58091;SDS011;43896;48.178;11.578;2024-03-17T02:01:09;6.53;;;2.92;;
58091;SDS011;43896;48.178;11.578;2024-03-17T02:03:35;5.18;;;2.92;;
58091;SDS011;43896;48.178;11.578;2024-03-17T02:06:01;5.97;;;3.10;;
58091;SDS011;43896;48.178;11.578;2024-03-17T02:08:26;5.35;;;3.10;;
58091;SDS011;43896;48.178;11.578;2024-03-17T02:10:52;5.25;;;2.80;;
58091;SDS011;43896;48.178;11.578;2024-03-17T02:13:19;6.35;;;3.13;;
58091;SDS011;43896;48.178;11.578;2024-03-17T02:15:46;6.05;;;2.92;;
58091;SDS011;43896;48.178;11.578;2024-03-17T02:18:11;5.68;;;2.80;;
58091;SDS011;43896;48.178;11.578;2024-03-17T02:20:37;5.68;;;2.63;;
58091;SDS011;43896;48.178;11.578;2024-03-17T02:23:20;5.20;;;2.70;;
58091;SDS011;43896;48.178;11.578;2024-03-17T02:25:46;6.38;;;3.47;;
58091;SDS011;43896;48.178;11.578;2024-03-17T02:28:12;6.18;;;3.13;;
58091;SDS011;43896;48.178;11.578;2024-03-17T02:30:38;5.38;;;3.30;;
58091;SDS011;43896;48.178;11.578;2024-03-17T02:33:04;6.05;;;3.13;;
58091;SDS011;43896;48.178;11.578;2024-03-17T02:35:29;5.80;;;3.25;;
58091;SDS011;43896;48.178;11.578;2024-03-17T02:37:55;6.55;;;3.38;;
58091;SDS011;43896;48.178;11.578;2024-03-17T02:40:20;5.35;;;3.15;;
58091;SDS011;43896;48.178;11.578;2024-03-17T02:42:45;6.65;;;3.53;;
58091;SDS011;43896;48.178;11.578;2024-03-17T02:45:11;5.68;;;3.45;;
58091;SDS011;43896;48.178;11.578;2024-03-17T02:47:38;5.68;;;3.30;;
58091;SDS011;43896;48.178;11.578;2024-03-17T02:50:04;6.45;;;3.58;;
58091;SDS011;43896;48.178;11.578;2024-03-17T02:52:29;6.35;;;3.00;;
58091;SDS011;43896;48.178;11.578;2024-03-17T02:54:55;6.05;;;3.05;;
58091;SDS011;43896;48.178;11.578;2024-03-17T02:57:21;5.53;;;2.92;;
58091;SDS011;43896;48.178;11.578;2024-03-17T02:59:49;5.43;;;2.97;;
58091;SDS011;43896;48.178;11.578;2024-03-17T03:02:16;5.20;;;3.05;;
58091;SDS011;43896;48.178;11.578;2024-03-17T03:04:42;6.28;;;3.20;;
58091;SDS011;43896;48.178;11.578;2024-03-17T03:07:07;6.28;;;3.30;;
58091;SDS011;43896;48.178;11.578;2024-03-17T03:09:33;6.40;;;3.63;;
58091;SDS011;43896;48.178;11.578;2024-03-17T03:11:59;5.78;;;3.20;;
58091;SDS011;43896;48.178;11.578;2024-03-17T03:14:26;5.90;;;3.25;;
58091;SDS011;43896;48.178;11.578;2024-03-17T03:16:52;6.07;;;3.08;;
58091;SDS011;43896;48.178;11.578;2024-03-17T03:19:18;5.70;;;3.25;;
58091;SDS011;43896;48.178;11.578;2024-03-17T03:21:44;5.78;;;3.25;;
58091;SDS011;43896;48.178;11.578;2024-03-17T03:24:10;4.97;;;2.88;;
58091;SDS011;43896;48.178;11.578;2024-03-17T03:26:37;6.15;;;3.22;;
58091;SDS011;43896;48.178;11.578;2024-03-17T03:29:03;5.60;;;3.50;;
58091;SDS011;43896;48.178;11.578;2024-03-17T03:31:30;5.60;;;2.78;;
58091;SDS011;43896;48.178;11.578;2024-03-17T03:33:56;6.53;;;3.42;;
58091;SDS011;43896;48.178;11.578;2024-03-17T03:36:22;5.40;;;3.10;;
58091;SDS011;43896;48.178;11.578;2024-03-17T03:38:47;6.05;;;3.20;;
58091;SDS011;43896;48.178;11.578;2024-03-17T03:41:13;6.25;;;3.50;;
58091;SDS011;43896;48.178;11.578;2024-03-17T03:43:40;7.60;;;2.92;;
58091;SDS011;43896;48.178;11.578;2024-03-17T03:46:06;5.50;;;3.13;;
58091;SDS011;43896;48.178;11.578;2024-03-17T03:48:32;6.57;;;3.38;;
58091;SDS011;43896;48.178;11.578;2024-03-17T03:50:59;6.07;;;3.40;;
58091;SDS011;43896;48.178;11.578;2024-03-17T03:53:29;6.15;;;3.45;;
58091;SDS011;43896;48.178;11.578;2024-03-17T03:55:55;7.15;;;3.60;;
58091;SDS011;43896;48.178;11.578;2024-03-17T03:58:20;5.38;;;2.95;;
58091;SDS011;43896;48.178;11.578;2024-03-17T04:00:46;5.88;;;3.10;;
58091;SDS011;43896;48.178;11.578;2024-03-17T04:03:11;5.70;;;3.40;;
58091;SDS011;43896;48.178;11.578;2024-03-17T04:05:37;6.47;;;3.40;;
58091;SDS011;43896;48.178;11.578;2024-03-17T04:08:03;5.70;;;3.38;;
58091;SDS011;43896;48.178;11.578;2024-03-17T04:10:29;6.25;;;3.67;;
58091;SDS011;43896;48.178;11.578;2024-03-17T04:12:55;7.00;;;3.95;;
58091;SDS011;43896;48.178;11.578;2024-03-17T04:15:21;6.88;;;4.03;;
58091;SDS011;43896;48.178;11.578;2024-03-17T04:17:47;7.40;;;3.97;;
58091;SDS011;43896;48.178;11.578;2024-03-17T04:20:12;5.78;;;3.65;;
58091;SDS011;43896;48.178;11.578;2024-03-17T04:22:38;6.82;;;3.63;;
58091;SDS011;43896;48.178;11.578;2024-03-17T04:25:04;5.55;;;3.58;;
58091;SDS011;43896;48.178;11.578;2024-03-17T04:27:30;6.82;;;3.92;;
58091;SDS011;43896;48.178;11.578;2024-03-17T04:29:57;6.60;;;3.60;;
58091;SDS011;43896;48.178;11.578;2024-03-17T04:32:23;6.90;;;3.58;;
58091;SDS011;43896;48.178;11.578;2024-03-17T04:34:49;6.28;;;3.47;;
58091;SDS011;43896;48.178;11.578;2024-03-17T04:37:15;6.32;;;3.53;;
58091;SDS011;43896;48.178;11.578;2024-03-17T04:39:42;5.88;;;3.50;;
58091;SDS011;43896;48.178;11.578;2024-03-17T04:42:08;6.85;;;3.75;;
58091;SDS011;43896;48.178;11.578;2024-03-17T04:44:35;6.30;;;3.60;;
58091;SDS011;43896;48.178;11.578;2024-03-17T04:47:02;6.47;;;3.90;;
58091;SDS011;43896;48.178;11.578;2024-03-17T04:49:32;6.80;;;3.63;;
58091;SDS011;43896;48.178;11.578;2024-03-17T04:52:00;6.07;;;3.30;;
58091;SDS011;43896;48.178;11.578;2024-03-17T04:54:25;5.95;;;3.15;;
58091;SDS011;43896;48.178;11.578;2024-03-17T04:56:50;6.35;;;3.50;;
58091;SDS011;43896;48.178;11.578;2024-03-17T04:59:16;5.72;;;3.53;;
58091;SDS011;43896;48.178;11.578;2024-03-17T05:01:41;6.55;;;3.47;;
58091;SDS011;43896;48.178;11.578;2024-03-17T05:04:07;5.95;;;3.50;;
58091;SDS011;43896;48.178;11.578;2024-03-17T05:06:32;5.80;;;3.28;;
58091;SDS011;43896;48.178;11.578;2024-03-17T05:08:58;6.30;;;3.63;;
58091;SDS011;43896;48.178;11.578;2024-03-17T05:11:23;6.35;;;3.50;;
58091;SDS011;43896;48.178;11.578;2024-03-17T05:13:49;7.18;;;3.88;;
58091;SDS011;43896;48.178;11.578;2024-03-17T05:16:15;6.05;;;3.42;;
58091;SDS011;43896;48.178;11.578;2024-03-17T05:18:41;6.97;;;3.63;;
58091;SDS011;43896;48.178;11.578;2024-03-17T05:21:06;6.55;;;3.60;;
58091;SDS011;43896;48.178;11.578;2024-03-17T05:23:33;6.82;;;3.70;;
58091;SDS011;43896;48.178;11.578;2024-03-17T05:25:59;6.30;;;3.60;;
58091;SDS011;43896;48.178;11.578;2024-03-17T05:28:26;6.78;;;4.20;;
58091;SDS011;43896;48.178;11.578;2024-03-17T05:30:53;7.13;;;3.72;;
58091;SDS011;43896;48.178;11.578;2024-03-17T05:33:20;6.50;;;3.50;;
58091;SDS011;43896;48.178;11.578;2024-03-17T05:38:31;7.13;;;3.70;;
58091;SDS011;43896;48.178;11.578;2024-03-17T05:40:57;8.02;;;3.45;;
58091;SDS011;43896;48.178;11.578;2024-03-17T05:43:36;7.07;;;3.50;;
58091;SDS011;43896;48.178;11.578;2024-03-17T05:46:03;6.68;;;3.50;;
58091;SDS011;43896;48.178;11.578;2024-03-17T05:48:33;5.93;;;3.40;;
58091;SDS011;43896;48.178;11.578;2024-03-17T05:51:02;5.90;;;3.70;;
58091;SDS011;43896;48.178;11.578;2024-03-17T05:53:27;5.65;;;3.33;;
58091;SDS011;43896;48.178;11.578;2024-03-17T05:55:53;6.75;;;3.58;;
58091;SDS011;43896;48.178;11.578;2024-03-17T05:58:18;7.18;;;3.80;;
58091;SDS011;43896;48.178;11.578;2024-03-17T06:00:44;6.20;;;3.40;;
58091;SDS011;43896;48.178;11.578;2024-03-17T06:03:09;6.95;;;3.78;;
58091;SDS011;43896;48.178;11.578;2024-03-17T06:05:36;6.25;;;3.30;;
58091;SDS011;43896;48.178;11.578;2024-03-17T06:08:03;7.18;;;3.40;;
58091;SDS011;43896;48.178;11.578;2024-03-17T06:10:33;6.65;;;3.50;;
58091;SDS011;43896;48.178;11.578;2024-03-17T06:12:59;6.60;;;3.50;;
58091;SDS011;43896;48.178;11.578;2024-03-17T06:15:25;7.13;;;3.40;;
58091;SDS011;43896;48.178;11.578;2024-03-17T06:17:51;6.50;;;3.35;;
58091;SDS011;43896;48.178;11.578;2024-03-17T06:20:17;7.07;;;3.25;;
58091;SDS011;43896;48.178;11.578;2024-03-17T06:22:43;5.80;;;3.45;;
58091;SDS011;43896;48.178;11.578;2024-03-17T06:25:10;7.38;;;3.30;;
58091;SDS011;43896;48.178;11.578;2024-03-17T06:27:36;6.15;;;3.50;;
58091;SDS011;43896;48.178;11.578;2024-03-17T06:30:02;7.13;;;3.60;;
58091;SDS011;43896;48.178;11.578;2024-03-17T06:32:31;5.72;;;3.20;;
58091;SDS011;43896;48.178;11.578;2024-03-17T06:35:03;5.85;;;3.50;;
58091;SDS011;43896;48.178;11.578;2024-03-17T06:37:29;7.50;;;3.47;;
58091;SDS011;43896;48.178;11.578;2024-03-17T06:39:54;6.20;;;3.35;;
58091;SDS011;43896;48.178;11.578;2024-03-17T06:42:20;6.00;;;3.15;;
58091;SDS011;43896;48.178;11.578;2024-03-17T06:44:45;5.97;;;2.95;;
58091;SDS011;43896;48.178;11.578;2024-03-17T06:47:11;5.82;;;3.33;;
58091;SDS011;43896;48.178;11.578;2024-03-17T06:49:36;5.70;;;3.17;;
58091;SDS011;43896;48.178;11.578;2024-03-17T06:52:02;6.18;;;3.60;;
58091;SDS011;43896;48.178;11.578;2024-03-17T06:54:27;5.95;;;3.40;;
58091;SDS011;43896;48.178;11.578;2024-03-17T06:56:53;8.27;;;3.85;;
58091;SDS011;43896;48.178;11.578;2024-03-17T06:59:18;5.95;;;3.28;;
58091;SDS011;43896;48.178;11.578;2024-03-17T07:01:46;6.75;;;3.78;;
58091;SDS011;43896;48.178;11.578;2024-03-17T07:04:12;6.85;;;3.50;;
58091;SDS011;43896;48.178;11.578;2024-03-17T07:06:38;5.93;;;3.50;;
58091;SDS011;43896;48.178;11.578;2024-03-17T07:09:03;6.75;;;3.72;;
58091;SDS011;43896;48.178;11.578;2024-03-17T07:11:29;6.35;;;3.60;;
58091;SDS011;43896;48.178;11.578;2024-03-17T07:13:54;6.28;;;3.55;;
58091;SDS011;43896;48.178;11.578;2024-03-17T07:16:20;6.85;;;3.85;;
58091;SDS011;43896;48.178;11.578;2024-03-17T07:18:50;6.32;;;3.55;;
58091;SDS011;43896;48.178;11.578;2024-03-17T07:21:17;7.18;;;3.75;;
58091;SDS011;43896;48.178;11.578;2024-03-17T07:23:43;7.25;;;3.30;;
58091;SDS011;43896;48.178;11.578;2024-03-17T07:26:09;6.00;;;3.50;;
58091;SDS011;43896;48.178;11.578;2024-03-17T07:28:34;6.90;;;3.55;;
58091;SDS011;43896;48.178;11.578;2024-03-17T07:31:00;8.05;;;3.72;;
58091;SDS011;43896;48.178;11.578;2024-03-17T07:33:26;6.63;;;3.40;;
58091;SDS011;43896;48.178;11.578;2024-03-17T07:35:56;6.72;;;3.50;;
58091;SDS011;43896;48.178;11.578;2024-03-17T07:38:25;6.40;;;4.00;;
58091;SDS011;43896;48.178;11.578;2024-03-17T07:43:36;5.93;;;3.17;;
58091;SDS011;43896;48.178;11.578;2024-03-17T07:46:04;5.85;;;3.22;;
58091;SDS011;43896;48.178;11.578;2024-03-17T07:48:30;5.43;;;3.00;;
58091;SDS011;43896;48.178;11.578;2024-03-17T07:51:02;5.57;;;2.90;;
58091;SDS011;43896;48.178;11.578;2024-03-17T07:53:32;5.72;;;2.88;;
58091;SDS011;43896;48.178;11.578;2024-03-17T07:58:31;4.63;;;2.70;;
58091;SDS011;43896;48.178;11.578;2024-03-17T08:01:01;5.57;;;3.17;;
58091;SDS011;43896;48.178;11.578;2024-03-17T08:03:32;5.70;;;3.00;;
58091;SDS011;43896;48.178;11.578;2024-03-17T08:05:59;5.35;;;3.17;;
58091;SDS011;43896;48.178;11.578;2024-03-17T08:08:30;5.85;;;3.08;;
58091;SDS011;43896;48.178;11.578;2024-03-17T08:10:56;5.47;;;3.10;;
58091;SDS011;43896;48.178;11.578;2024-03-17T08:13:22;6.25;;;3.10;;
58091;SDS011;43896;48.178;11.578;2024-03-17T08:15:58;6.22;;;3.30;;
58091;SDS011;43896;48.178;11.578;2024-03-17T08:18:24;6.45;;;2.90;;
58091;SDS011;43896;48.178;11.578;2024-03-17T08:20:52;6.47;;;3.40;;
58091;SDS011;43896;48.178;11.578;2024-03-17T08:23:19;5.30;;;3.03;;
58091;SDS011;43896;48.178;11.578;2024-03-17T08:25:54;6.13;;;3.28;;
58091;SDS011;43896;48.178;11.578;2024-03-17T08:28:23;5.75;;;3.47;;
58091;SDS011;43896;48.178;11.578;2024-03-17T08:30:53;6.50;;;3.15;;
58091;SDS011;43896;48.178;11.578;2024-03-17T08:33:19;6.13;;;3.13;;
58091;SDS011;43896;48.178;11.578;2024-03-17T08:35:55;10.30;;;6.55;;
58091;SDS011;43896;48.178;11.578;2024-03-17T08:38:25;9.70;;;5.28;;
58091;SDS011;43896;48.178;11.578;2024-03-17T08:40:53;7.85;;;3.45;;
58091;SDS011;43896;48.178;11.578;2024-03-17T08:43:19;7.13;;;3.50;;
58091;SDS011;43896;48.178;11.578;2024-03-17T08:45:59;5.68;;;3.33;;
58091;SDS011;43896;48.178;11.578;2024-03-17T08:48:30;5.93;;;3.42;;
58091;SDS011;43896;48.178;11.578;2024-03-17T08:50:57;5.68;;;3.40;;
58091;SDS011;43896;48.178;11.578;2024-03-17T08:53:23;6.47;;;3.30;;
58091;SDS011;43896;48.178;11.578;2024-03-17T08:55:50;5.53;;;2.95;;
58091;SDS011;43896;48.178;11.578;2024-03-17T08:58:15;4.78;;;3.00;;
58091;SDS011;43896;48.178;11.578;2024-03-17T09:00:41;7.15;;;2.40;;
58091;SDS011;43896;48.178;11.578;2024-03-17T09:03:07;7.00;;;2.67;;
58091;SDS011;43896;48.178;11.578;2024-03-17T09:05:35;5.30;;;2.42;;
58091;SDS011;43896;48.178;11.578;2024-03-17T09:08:05;4.68;;;2.50;;
58091;SDS011;43896;48.178;11.578;2024-03-17T09:10:38;5.55;;;2.20;;
58091;SDS011;43896;48.178;11.578;2024-03-17T09:13:08;6.57;;;2.55;;
58091;SDS011;43896;48.178;11.578;2024-03-17T09:15:39;6.65;;;2.80;;
58091;SDS011;43896;48.178;11.578;2024-03-17T09:18:04;7.50;;;2.03;;
58091;SDS011;43896;48.178;11.578;2024-03-17T09:20:29;8.20;;;2.17;;
58091;SDS011;43896;48.178;11.578;2024-03-17T09:22:56;5.60;;;2.33;;
58091;SDS011;43896;48.178;11.578;2024-03-17T09:25:21;6.80;;;1.90;;
58091;SDS011;43896;48.178;11.578;2024-03-17T09:27:48;5.80;;;1.77;;
58091;SDS011;43896;48.178;11.578;2024-03-17T09:30:14;4.40;;;1.85;;
58091;SDS011;43896;48.178;11.578;2024-03-17T09:32:39;3.90;;;1.80;;
58091;SDS011;43896;48.178;11.578;2024-03-17T09:35:06;3.53;;;1.63;;
58091;SDS011;43896;48.178;11.578;2024-03-17T09:37:32;5.13;;;1.85;;
58091;SDS011;43896;48.178;11.578;2024-03-17T09:39:57;11.45;;;2.00;;
58091;SDS011;43896;48.178;11.578;2024-03-17T09:42:25;4.18;;;1.90;;
58091;SDS011;43896;48.178;11.578;2024-03-17T09:44:51;3.50;;;1.60;;
58091;SDS011;43896;48.178;11.578;2024-03-17T09:47:19;4.82;;;1.90;;
58091;SDS011;43896;48.178;11.578;2024-03-17T09:49:49;3.70;;;1.85;;
58091;SDS011;43896;48.178;11.578;2024-03-17T09:52:18;3.95;;;1.70;;
58091;SDS011;43896;48.178;11.578;2024-03-17T09:55:00;4.15;;;1.73;;
58091;SDS011;43896;48.178;11.578;2024-03-17T09:57:34;3.22;;;1.60;;
58091;SDS011;43896;48.178;11.578;2024-03-17T10:00:01;5.03;;;1.75;;
58091;SDS011;43896;48.178;11.578;2024-03-17T10:02:41;3.40;;;1.70;;
58091;SDS011;43896;48.178;11.578;2024-03-17T10:05:17;4.40;;;1.60;;
58091;SDS011;43896;48.178;11.578;2024-03-17T10:07:44;4.13;;;1.60;;
58091;SDS011;43896;48.178;11.578;2024-03-17T10:10:10;5.18;;;1.35;;
58091;SDS011;43896;48.178;11.578;2024-03-17T10:12:39;5.40;;;1.65;;
58091;SDS011;43896;48.178;11.578;2024-03-17T10:15:05;5.13;;;1.70;;
58091;SDS011;43896;48.178;11.578;2024-03-17T10:17:31;5.25;;;1.50;;
58091;SDS011;43896;48.178;11.578;2024-03-17T10:20:13;3.20;;;1.30;;
58091;SDS011;43896;48.178;11.578;2024-03-17T10:22:49;4.07;;;1.25;;
58091;SDS011;43896;48.178;11.578;2024-03-17T10:25:24;3.10;;;1.40;;
58091;SDS011;43896;48.178;11.578;2024-03-17T10:27:50;4.28;;;1.30;;
58091;SDS011;43896;48.178;11.578;2024-03-17T10:30:18;2.63;;;1.00;;
58091;SDS011;43896;48.178;11.578;2024-03-17T10:32:45;4.15;;;1.10;;
58091;SDS011;43896;48.178;11.578;2024-03-17T10:38:02;2.90;;;1.17;;
58091;SDS011;43896;48.178;11.578;2024-03-17T10:40:31;3.28;;;1.10;;
58091;SDS011;43896;48.178;11.578;2024-03-17T10:43:00;3.35;;;1.20;;
58091;SDS011;43896;48.178;11.578;2024-03-17T10:45:26;4.07;;;1.10;;
58091;SDS011;43896;48.178;11.578;2024-03-17T10:50:22;4.97;;;1.10;;
58091;SDS011;43896;48.178;11.578;2024-03-17T10:52:51;2.53;;;0.90;;
58091;SDS011;43896;48.178;11.578;2024-03-17T10:55:24;2.47;;;1.00;;
58091;SDS011;43896;48.178;11.578;2024-03-17T10:57:51;5.30;;;1.00;;
58091;SDS011;43896;48.178;11.578;2024-03-17T11:00:23;3.90;;;0.95;;
58091;SDS011;43896;48.178;11.578;2024-03-17T11:02:52;3.15;;;0.90;;
58091;SDS011;43896;48.178;11.578;2024-03-17T11:07:47;2.53;;;1.05;;
58091;SDS011;43896;48.178;11.578;2024-03-17T11:10:27;3.05;;;1.25;;
58091;SDS011;43896;48.178;11.578;2024-03-17T11:12:54;3.42;;;1.25;;
58091;SDS011;43896;48.178;11.578;2024-03-17T11:20:34;4.18;;;1.42;;
58091;SDS011;43896;48.178;11.578;2024-03-17T11:23:02;3.33;;;1.20;;
58091;SDS011;43896;48.178;11.578;2024-03-17T11:27:59;3.42;;;1.30;;
58091;SDS011;43896;48.178;11.578;2024-03-17T11:47:05;3.45;;;1.20;;
58091;SDS011;43896;48.178;11.578;2024-03-17T11:52:16;3.10;;;1.02;;
58091;SDS011;43896;48.178;11.578;2024-03-17T11:54:43;3.17;;;1.10;;
58091;SDS011;43896;48.178;11.578;2024-03-17T11:57:11;3.15;;;0.95;;
58091;SDS011;43896;48.178;11.578;2024-03-17T11:59:38;3.03;;;0.90;;
58091;SDS011;43896;48.178;11.578;2024-03-17T12:04:53;2.95;;;0.80;;
58091;SDS011;43896;48.178;11.578;2024-03-17T12:07:22;4.97;;;1.08;;
58091;SDS011;43896;48.178;11.578;2024-03-17T12:09:48;3.75;;;1.20;;
58091;SDS011;43896;48.178;11.578;2024-03-17T12:12:19;3.50;;;1.33;;
58091;SDS011;43896;48.178;11.578;2024-03-17T12:14:44;3.78;;;1.30;;
58091;SDS011;43896;48.178;11.578;2024-03-17T12:17:11;4.78;;;1.30;;
58091;SDS011;43896;48.178;11.578;2024-03-17T12:22:09;3.92;;;1.08;;
58091;SDS011;43896;48.178;11.578;2024-03-17T12:24:41;3.28;;;1.27;;
58091;SDS011;43896;48.178;11.578;2024-03-17T12:27:09;3.92;;;1.33;;
58091;SDS011;43896;48.178;11.578;2024-03-17T12:29:42;3.00;;;1.20;;
58091;SDS011;43896;48.178;11.578;2024-03-17T12:32:15;3.72;;;1.27;;
58091;SDS011;43896;48.178;11.578;2024-03-17T12:34:42;3.00;;;1.30;;
58091;SDS011;43896;48.178;11.578;2024-03-17T12:37:12;3.13;;;1.08;;
58091;SDS011;43896;48.178;11.578;2024-03-17T12:39:43;3.60;;;1.20;;
58091;SDS011;43896;48.178;11.578;2024-03-17T12:42:12;2.55;;;0.90;;
58091;SDS011;43896;48.178;11.578;2024-03-17T12:44:52;5.72;;;1.23;;
58091;SDS011;43896;48.178;11.578;2024-03-17T12:47:22;4.35;;;1.10;;
58091;SDS011;43896;48.178;11.578;2024-03-17T12:49:53;4.10;;;1.85;;
58091;SDS011;43896;48.178;11.578;2024-03-17T12:54:56;2.92;;;1.00;;
58091;SDS011;43896;48.178;11.578;2024-03-17T12:57:41;2.97;;;1.10;;
58091;SDS011;43896;48.178;11.578;2024-03-17T13:00:25;3.05;;;1.08;;
58091;SDS011;43896;48.178;11.578;2024-03-17T13:02:57;2.70;;;1.00;;
58091;SDS011;43896;48.178;11.578;2024-03-17T13:05:23;3.88;;;1.00;;
58091;SDS011;43896;48.178;11.578;2024-03-17T13:07:48;4.25;;;1.30;;
58091;SDS011;43896;48.178;11.578;2024-03-17T13:10:16;3.13;;;1.00;;
58091;SDS011;43896;48.178;11.578;2024-03-17T13:12:43;4.38;;;1.17;;
58091;SDS011;43896;48.178;11.578;2024-03-17T13:15:13;5.03;;;1.27;;
58091;SDS011;43896;48.178;11.578;2024-03-17T13:17:42;4.03;;;1.23;;
58091;SDS011;43896;48.178;11.578;2024-03-17T13:20:12;4.30;;;1.20;;
58091;SDS011;43896;48.178;11.578;2024-03-17T13:22:41;4.97;;;1.50;;
58091;SDS011;43896;48.178;11.578;2024-03-17T13:25:09;3.10;;;1.30;;
58091;SDS011;43896;48.178;11.578;2024-03-17T13:27:42;3.65;;;1.30;;
58091;SDS011;43896;48.178;11.578;2024-03-17T13:30:08;3.08;;;1.10;;
58091;SDS011;43896;48.178;11.578;2024-03-17T13:32:35;3.97;;;1.20;;
58091;SDS011;43896;48.178;11.578;2024-03-17T13:35:01;4.88;;;1.35;;
58091;SDS011;43896;48.178;11.578;2024-03-17T13:37:27;3.03;;;1.02;;
58091;SDS011;43896;48.178;11.578;2024-03-17T13:39:53;3.17;;;0.98;;
58091;SDS011;43896;48.178;11.578;2024-03-17T13:42:18;2.85;;;1.00;;
58091;SDS011;43896;48.178;11.578;2024-03-17T13:44:45;3.58;;;1.17;;
58091;SDS011;43896;48.178;11.578;2024-03-17T13:47:11;2.00;;;1.00;;
58091;SDS011;43896;48.178;11.578;2024-03-17T13:49:36;2.65;;;1.08;;
58091;SDS011;43896;48.178;11.578;2024-03-17T13:52:02;4.30;;;0.93;;
58091;SDS011;43896;48.178;11.578;2024-03-17T13:54:29;3.60;;;1.30;;
58091;SDS011;43896;48.178;11.578;2024-03-17T13:56:55;2.65;;;1.00;;
58091;SDS011;43896;48.178;11.578;2024-03-17T13:59:23;4.00;;;1.10;;
58091;SDS011;43896;48.178;11.578;2024-03-17T14:01:49;4.10;;;1.20;;
58091;SDS011;43896;48.178;11.578;2024-03-17T14:04:15;2.88;;;1.10;;
58091;SDS011;43896;48.178;11.578;2024-03-17T14:06:44;3.97;;;1.25;;
58091;SDS011;43896;48.178;11.578;2024-03-17T14:09:11;4.45;;;1.10;;
58091;SDS011;43896;48.178;11.578;2024-03-17T14:11:45;4.20;;;1.30;;
58091;SDS011;43896;48.178;11.578;2024-03-17T14:14:11;3.72;;;1.27;;
58091;SDS011;43896;48.178;11.578;2024-03-17T14:16:37;3.42;;;0.98;;
58091;SDS011;43896;48.178;11.578;2024-03-17T14:19:03;4.20;;;1.20;;
58091;SDS011;43896;48.178;11.578;2024-03-17T14:21:28;4.25;;;1.48;;
58091;SDS011;43896;48.178;11.578;2024-03-17T14:23:54;3.50;;;1.08;;
58091;SDS011;43896;48.178;11.578;2024-03-17T14:26:21;5.18;;;1.23;;
58091;SDS011;43896;48.178;11.578;2024-03-17T14:28:47;3.83;;;1.20;;
58091;SDS011;43896;48.178;11.578;2024-03-17T14:31:15;3.67;;;0.88;;
58091;SDS011;43896;48.178;11.578;2024-03-17T14:33:40;3.58;;;1.17;;
58091;SDS011;43896;48.178;11.578;2024-03-17T14:36:06;4.88;;;1.10;;
58091;SDS011;43896;48.178;11.578;2024-03-17T14:38:31;4.90;;;1.50;;
58091;SDS011;43896;48.178;11.578;2024-03-17T14:40:57;3.25;;;1.20;;
58091;SDS011;43896;48.178;11.578;2024-03-17T14:43:22;3.53;;;1.20;;
58091;SDS011;43896;48.178;11.578;2024-03-17T14:45:48;5.35;;;1.40;;
58091;SDS011;43896;48.178;11.578;2024-03-17T14:48:14;4.20;;;1.20;;
58091;SDS011;43896;48.178;11.578;2024-03-17T14:50:39;5.22;;;0.88;;
58091;SDS011;43896;48.178;11.578;2024-03-17T14:53:05;3.50;;;0.95;;
58091;SDS011;43896;48.178;11.578;2024-03-17T14:55:31;2.97;;;0.90;;
58091;SDS011;43896;48.178;11.578;2024-03-17T14:57:58;3.65;;;0.90;;
58091;SDS011;43896;48.178;11.578;2024-03-17T15:00:31;2.60;;;0.80;;
58091;SDS011;43896;48.178;11.578;2024-03-17T15:02:57;4.68;;;1.20;;
58091;SDS011;43896;48.178;11.578;2024-03-17T15:05:23;3.17;;;0.85;;
58091;SDS011;43896;48.178;11.578;2024-03-17T15:07:50;4.53;;;0.90;;
58091;SDS011;43896;48.178;11.578;2024-03-17T15:10:16;4.22;;;1.00;;
58091;SDS011;43896;48.178;11.578;2024-03-17T15:12:48;5.20;;;0.98;;
58091;SDS011;43896;48.178;11.578;2024-03-17T15:15:14;4.57;;;1.05;;
58091;SDS011;43896;48.178;11.578;2024-03-17T15:17:40;2.58;;;1.02;;
58091;SDS011;43896;48.178;11.578;2024-03-17T15:20:06;6.07;;;1.20;;
58091;SDS011;43896;48.178;11.578;2024-03-17T15:22:46;3.97;;;1.20;;
58091;SDS011;43896;48.178;11.578;2024-03-17T15:25:14;2.60;;;1.00;;